createdAt,value
2023-03-18T00:03:37.488Z,60.06
2023-03-18T00:08:40.160Z,59.87
2023-03-18T00:13:49.903Z,59.77
2023-03-18T00:18:53.188Z,59.88
2023-03-18T00:23:57.035Z,60.05
2023-03-18T00:28:59.245Z,60.35
2023-03-18T00:34:01.426Z,60.59
2023-03-18T00:39:03.832Z,60.92
2023-03-18T00:44:06.321Z,61.21
2023-03-18T00:49:11.052Z,61.43
2023-03-18T00:54:19.718Z,61.55
2023-03-18T00:59:24.061Z,61.78
2023-03-18T01:04:25.948Z,62.01
2023-03-18T01:09:27.698Z,62.11
2023-03-18T01:14:30.007Z,62.95
2023-03-18T01:19:31.934Z,78.21
2023-03-18T01:24:34.042Z,69.56
2023-03-18T01:29:36.307Z,62.46
2023-03-18T01:34:41.602Z,56.17
2023-03-18T01:39:43.679Z,57.38
2023-03-18T01:45:10.094Z,60.34
2023-03-18T01:50:14.977Z,61.70
2023-03-18T01:55:19.375Z,64.52
2023-03-18T02:00:21.826Z,73.01
2023-03-18T02:10:27.626Z,56.69
2023-03-18T02:15:33.115Z,54.73
2023-03-18T02:20:40.708Z,57.16
2023-03-18T02:26:01.991Z,59.30
2023-03-18T02:31:05.792Z,59.71
2023-03-18T02:36:17.880Z,58.60
2023-03-18T02:41:24.716Z,58.23
2023-03-18T02:46:27.132Z,58.51
2023-03-18T02:51:29.898Z,61.58
2023-03-18T02:56:32.064Z,70.18
2023-03-18T03:01:35.266Z,60.11
2023-03-18T03:06:37.437Z,59.48
2023-03-18T03:11:40.904Z,64.20
2023-03-18T03:16:48.620Z,74.38
2023-03-18T03:21:52.462Z,66.57
2023-03-18T03:26:54.303Z,60.68
2023-03-18T03:31:56.492Z,55.95
2023-03-18T03:36:58.994Z,58.38
2023-03-18T03:42:00.936Z,60.53
2023-03-18T03:47:02.708Z,63.43
2023-03-18T03:52:05.138Z,74.91
2023-03-18T03:57:09.100Z,66.85
2023-03-18T04:02:10.888Z,60.37
2023-03-18T04:07:14.395Z,55.21
2023-03-18T04:12:18.375Z,60.70
2023-03-18T04:17:24.680Z,69.57
2023-03-18T04:22:26.632Z,64.11
2023-03-18T04:27:29.099Z,59.86
2023-03-18T04:32:32.142Z,57.17
2023-03-18T04:37:37.335Z,60.15
2023-03-18T04:42:40.086Z,62.87
2023-03-18T04:47:44.432Z,68.98
2023-03-18T04:52:47.151Z,67.41
2023-03-18T04:57:51.641Z,61.61
2023-03-18T05:06:30.244Z,58.97
2023-03-18T05:11:35.086Z,64.71
2023-03-18T05:16:45.620Z,58.08
2023-03-18T05:21:48.039Z,54.27
2023-03-18T05:26:51.186Z,59.94
2023-03-18T05:31:54.554Z,66.17
2023-03-18T05:36:57.713Z,58.11
2023-03-18T05:42:02.265Z,54.85
2023-03-18T05:47:04.643Z,59.11
2023-03-18T05:52:32.693Z,68.06
2023-03-18T05:57:38.977Z,63.92
2023-03-18T06:02:42.896Z,57.77
2023-03-18T06:07:45.729Z,55.86
2023-03-18T06:12:47.843Z,57.06
2023-03-18T06:17:52.777Z,59.07
2023-03-18T06:22:54.818Z,67.92
2023-03-18T06:27:58.909Z,64.45
2023-03-18T06:33:03.534Z,55.27
2023-03-18T06:38:06.608Z,54.59
2023-03-18T06:43:09.245Z,55.32
2023-03-18T06:48:13.511Z,58.67
2023-03-18T06:53:18.115Z,60.16
2023-03-18T06:58:21.372Z,67.29
2023-03-18T07:03:32.919Z,62.92
2023-03-18T07:08:36.002Z,54.92
2023-03-18T07:13:37.914Z,56.50
2023-03-18T07:18:42.825Z,58.58
2023-03-18T07:23:46.313Z,61.82
2023-03-18T07:28:48.287Z,62.00
2023-03-18T07:33:50.068Z,55.01
2023-03-18T07:38:51.882Z,55.01
2023-03-18T07:43:53.751Z,54.99
2023-03-18T07:48:55.467Z,53.74
2023-03-18T07:53:57.483Z,52.99
2023-03-18T07:58:59.539Z,52.34
2023-03-18T08:04:01.280Z,50.87
2023-03-18T08:09:03.835Z,49.37
2023-03-18T08:14:05.808Z,49.23
2023-03-18T08:19:07.556Z,49.11
2023-03-18T08:24:09.661Z,47.41
2023-03-18T08:29:11.369Z,45.63
2023-03-18T08:34:14.101Z,45.45
2023-03-18T08:39:15.991Z,44.37
2023-03-18T08:44:18.115Z,43.09
2023-03-18T08:49:19.961Z,42.46
2023-03-18T08:54:21.781Z,41.51
2023-03-18T08:59:23.680Z,39.07
2023-03-18T09:04:26.014Z,39.14
2023-03-18T09:09:37.371Z,38.82
2023-03-18T09:14:44.971Z,37.76
2023-03-18T09:19:46.705Z,36.65
2023-03-18T09:24:48.444Z,36.70
2023-03-18T09:29:50.656Z,36.48
2023-03-18T09:34:53.717Z,35.62
2023-03-18T09:39:56.133Z,35.86
2023-03-18T09:45:06.490Z,36.17
2023-03-18T09:50:36.872Z,34.83
2023-03-18T09:55:50.692Z,33.85
2023-03-18T10:01:00.230Z,33.90
2023-03-18T10:06:11.189Z,32.92
2023-03-18T10:11:19.622Z,33.39
2023-03-18T10:16:27.095Z,32.02
2023-03-18T10:21:48.520Z,32.02
2023-03-18T10:27:24.707Z,31.84
2023-03-18T10:33:02.873Z,31.83
2023-03-18T10:38:18.010Z,32.47
2023-03-18T10:43:25.235Z,30.22
2023-03-18T10:48:32.419Z,29.79
2023-03-18T10:53:45.459Z,28.93
2023-03-18T10:58:47.697Z,29.12
2023-03-18T11:03:54.757Z,28.79
2023-03-18T11:09:08.552Z,27.92
2023-03-18T11:14:28.931Z,27.57
2023-03-18T11:19:41.280Z,27.86
2023-03-18T11:24:43.996Z,28.34
2023-03-18T11:29:55.304Z,27.80
2023-03-18T11:34:58.924Z,27.47
2023-03-18T11:40:23.725Z,27.04
2023-03-18T11:45:44.368Z,26.80
2023-03-18T11:50:53.922Z,27.44
2023-03-18T11:56:06.584Z,26.83
2023-03-18T12:01:32.786Z,26.52
2023-03-18T12:07:05.650Z,26.97
2023-03-18T12:12:21.309Z,26.60
2023-03-18T12:17:35.963Z,26.49
2023-03-18T12:23:01.070Z,26.11
2023-03-18T12:28:30.646Z,25.79
2023-03-18T12:33:56.522Z,25.07
2023-03-18T12:39:24.348Z,25.45
2023-03-18T12:44:45.144Z,25.87
2023-03-18T12:49:52.742Z,25.23
2023-03-18T12:55:17.907Z,25.15
2023-03-18T13:00:28.379Z,25.33
2023-03-18T13:05:47.070Z,25.99
2023-03-18T13:10:57.682Z,25.55
2023-03-18T13:16:01.402Z,25.50
2023-03-18T13:21:05.617Z,24.36
2023-03-18T13:26:14.001Z,24.41
2023-03-18T13:31:24.752Z,24.95
2023-03-18T13:36:38.143Z,24.98
2023-03-18T13:42:18.545Z,24.56
2023-03-18T13:47:22.569Z,24.62
2023-03-18T13:52:33.571Z,24.17
2023-03-18T13:57:47.057Z,22.28
2023-03-18T14:03:05.803Z,22.86
2023-03-18T14:08:38.689Z,22.89
2023-03-18T14:13:40.841Z,23.79
2023-03-18T14:18:43.216Z,24.64
2023-03-18T14:23:45.264Z,24.55
2023-03-18T14:28:55.178Z,24.37
2023-03-18T14:34:17.868Z,24.30
2023-03-18T14:39:30.745Z,24.00
2023-03-18T14:44:50.413Z,23.97
2023-03-18T14:50:01.291Z,23.83
2023-03-18T14:55:15.458Z,23.33
2023-03-18T15:00:19.130Z,23.71
2023-03-18T15:05:22.850Z,23.57
2023-03-18T15:10:29.405Z,24.57
2023-03-18T15:15:32.123Z,24.96
2023-03-18T15:20:36.396Z,25.31
2023-03-18T15:25:41.327Z,25.60
2023-03-18T15:30:52.449Z,25.55
2023-03-18T15:36:04.367Z,26.28
2023-03-18T15:41:09.525Z,25.83
2023-03-18T15:46:15.898Z,26.13
2023-03-18T15:51:30.865Z,27.07
2023-03-18T15:56:35.997Z,27.82
2023-03-18T16:01:37.839Z,27.99
2023-03-18T16:06:40.396Z,28.88
2023-03-18T16:11:43.586Z,29.43
2023-03-18T16:16:45.933Z,29.89
2023-03-18T16:21:47.637Z,30.19
2023-03-18T16:26:51.729Z,30.64
2023-03-18T16:31:53.478Z,30.81
2023-03-18T16:36:56.139Z,31.03
2023-03-18T16:41:57.829Z,31.52
2023-03-18T16:46:59.792Z,32.17
2023-03-18T16:52:04.211Z,32.52
2023-03-18T16:57:10.442Z,33.06
2023-03-18T17:02:33.718Z,33.50
2023-03-18T17:07:37.050Z,33.83
2023-03-18T17:12:40.239Z,34.01
2023-03-18T17:17:42.980Z,34.30
2023-03-18T17:22:45.280Z,34.46
2023-03-18T17:27:50.805Z,34.66
2023-03-18T17:32:52.616Z,34.89
2023-03-18T17:37:54.884Z,35.24
2023-03-18T17:42:56.616Z,35.50
2023-03-18T17:48:15.600Z,35.76
2023-03-18T17:53:27.012Z,35.98
2023-03-18T17:58:29.985Z,36.13
2023-03-18T18:03:33.117Z,36.32
2023-03-18T18:08:36.142Z,36.44
2023-03-18T18:13:38.015Z,37.03
2023-03-18T18:18:41.656Z,38.02
2023-03-18T18:23:48.680Z,37.73
2023-03-18T18:28:52.790Z,38.58
2023-03-18T18:33:55.931Z,39.61
2023-03-18T18:38:57.671Z,40.98
2023-03-18T18:43:59.972Z,42.98
2023-03-18T18:49:01.835Z,44.03
2023-03-18T18:54:03.778Z,44.82
2023-03-18T18:59:18.389Z,45.20
2023-03-18T19:04:21.943Z,43.62
2023-03-18T19:09:25.952Z,42.57
2023-03-18T19:14:29.414Z,42.68
2023-03-18T19:19:34.879Z,42.58
2023-03-18T19:24:37.175Z,42.74
2023-03-18T19:29:38.935Z,42.84
2023-03-18T19:34:40.608Z,43.46
2023-03-18T19:39:42.947Z,44.18
2023-03-18T19:44:46.414Z,44.54
2023-03-18T19:49:48.739Z,45.13
2023-03-18T19:54:53.098Z,45.71
2023-03-18T19:59:59.225Z,45.79
2023-03-18T20:05:17.005Z,45.80
2023-03-18T20:10:20.022Z,45.80
2023-03-18T20:15:26.983Z,45.95
2023-03-18T20:20:31.454Z,46.05
2023-03-18T20:25:36.895Z,46.17
2023-03-18T20:30:40.319Z,46.42
2023-03-18T20:35:45.579Z,46.51
2023-03-18T20:40:50.039Z,46.50
2023-03-18T20:45:52.523Z,46.56
2023-03-18T20:50:55.356Z,46.74
2023-03-18T20:55:58.486Z,47.06
2023-03-18T21:01:00.331Z,47.20
2023-03-18T21:06:06.669Z,47.42
2023-03-18T21:11:27.608Z,47.57
2023-03-18T21:16:29.372Z,47.69
2023-03-18T21:21:38.389Z,48.09
2023-03-18T21:26:41.068Z,48.25
2023-03-18T21:31:43.677Z,48.69
2023-03-18T21:36:47.097Z,48.64
2023-03-18T21:41:48.796Z,48.32
2023-03-18T21:46:51.844Z,48.95
2023-03-18T21:51:53.646Z,48.40
2023-03-18T21:56:55.545Z,49.56
2023-03-18T22:01:57.328Z,49.81
2023-03-18T22:06:59.294Z,49.95
2023-03-18T22:12:25.972Z,50.09
2023-03-18T22:17:30.908Z,49.71
2023-03-18T22:22:37.008Z,50.20
2023-03-18T22:27:38.924Z,50.37
2023-03-18T22:32:45.809Z,50.44
2023-03-18T22:37:48.619Z,50.45
2023-03-18T22:42:53.463Z,50.50
2023-03-18T22:48:18.657Z,50.56
2023-03-18T22:53:43.060Z,50.65
2023-03-18T22:58:45.528Z,50.47
2023-03-18T23:03:47.792Z,50.55
2023-03-18T23:08:49.650Z,50.35
2023-03-18T23:13:52.270Z,50.16
2023-03-18T23:18:54.559Z,49.97
2023-03-18T23:23:56.971Z,49.85
2023-03-18T23:28:58.681Z,49.85
2023-03-18T23:34:00.397Z,49.95
2023-03-18T23:39:02.106Z,49.73
2023-03-18T23:44:03.759Z,49.94
2023-03-18T23:49:05.728Z,49.75
2023-03-18T23:54:08.316Z,49.72
2023-03-18T23:59:10.432Z,49.93
